KFMH/FMH METAR and TAF weather

Enter ICAO airport designator
Station Type Date Time Source
KFMH METAR 2019/08/24 22:56 UTC NOAA

KFMH 242256Z 06011KT 10SM BKN027 18/14 A3021


Station Type Date Time Source
KFMH Decoded METAR 2019/08/24 22:56 UTC NOAA

Station name not available
Aug 24, 2019 - 06:56 PM EDT / 2019.08.24 2256 UTC
Wind: from the ENE (060 degrees) at 13 MPH (11 KT):0
Visibility: 10 mile(s):0
Sky conditions: mostly cloudy
Temperature: 64 F (18 C)
Dew Point: 57 F (14 C)
Relative Humidity: 77%
Pressure (altimeter): 30.21 in. Hg (1023 hPa)
ob: KFMH 242256Z 06011KT 10SM BKN027 18/14 A3021
cycle: 23

Station Type Date Time Source
KFMH TAF 2019/08/24 21:10 UTC NOAA

TAF
AMD KFMH 242108Z 2421/2518 05011KT P6SM SCT023 BKN028
FM242300 05012KT P6SM FEW025
FM250300 05006KT P6SM SCT020
FM250900 05008KT P6SM VCSH BKN020
FM251400 06012G22KT P6SM BKN020
FM251600 05014G24KT P6SM SCT020

Example: see airport list